Gillette Campbell County Airport
KGCC : rendu visible

Aérodrome :











RETROUVEZ-NOUS SUR...

 
LOGIN :

S'inscrire | Disclaimer

   EN    FR    IT 

 









Légende :    VFR   VFR Marginal   IFR   IFR Intensif   IFR Très Intensif
Visi : 
Plafond : 
>= 8 km
>= 3000ft
5 à 8 km
1000 à 3000 ft
1500m à 5 km
500 à 1000 ft
800 à 1500m
200 à 500 ft
< 800m
< 200 ft
Symboles :   Orages  Brouillard  Fortes neiges  Fortes précipitations  Vent > 20 kt






- Altitude de l'aérodrome : 4365 ft


KGCC - Gillette Campbell County

DERNIER METAR :
  • 222253Z AUTO 23003KT 10SM CLR 06/M05 A2994 RMK AO2 SLP166 T00561050

METARs EXPIRÉS :
  • 222153Z AUTO 24004KT 10SM CLR 07/M06 A2992 RMK AO2 SLP159 T00721061
  • 222053Z AUTO 21005KT 10SM CLR 07/M07 A2990 RMK AO2 SLP149 T00721072 56015

TAF KGCC
Valide du 22 à 18h jusqu'au 23 à 18h UTC


221721Z 2218/2318 22010KT P6SM SKC
FM230000 28010KT P6SM SKC
FM231200 22010KT P6SM SKC



MET'MAP, la Météo Aéronautique d'un coup d'oeil ! - Copyright ORBIFLY Décembre 2007 - Disclaimer

ORBIFLY MET'MAP TEAM :

Programmation & Développement : Alexandra Zaïnal
Conception & Développement : Baudouin d'Aumeries
Co-Programmation & Développement : Marc-Olivier Méhu
Soutien technique & logistique : Manuel Goepfert

Contact : metmap@orbifly.com




SOURCES & CREDITS :

   NOAA       Earth
Advisory